createdAt,value
2023-10-06T00:01:07.636Z,17.54
2023-10-06T00:03:40.596Z,17.50
2023-10-06T00:06:08.209Z,17.53
2023-10-06T00:08:35.419Z,17.57
2023-10-06T00:11:04.151Z,17.56
2023-10-06T00:13:33.794Z,17.57
2023-10-06T00:16:06.587Z,17.68
2023-10-06T00:18:36.823Z,17.22
2023-10-06T00:21:09.686Z,17.58
2023-10-06T00:23:37.886Z,17.65
2023-10-06T00:26:04.841Z,17.50
2023-10-06T00:28:31.838Z,17.42
2023-10-06T00:30:58.606Z,17.35
2023-10-06T00:33:25.776Z,17.26
2023-10-06T00:35:52.695Z,17.11
2023-10-06T00:38:19.796Z,17.43
2023-10-06T00:43:56.906Z,17.89
2023-10-06T00:46:23.658Z,17.83
2023-10-06T00:48:50.625Z,17.58
2023-10-06T00:51:19.262Z,17.49
2023-10-06T00:53:52.014Z,17.61
2023-10-06T00:56:19.709Z,17.44
2023-10-06T00:58:47.037Z,17.49
2023-10-06T01:01:17.181Z,17.69
2023-10-06T01:03:45.784Z,16.96
2023-10-06T01:06:13.952Z,16.67
2023-10-06T01:08:46.806Z,16.49
2023-10-06T01:11:19.533Z,16.92
2023-10-06T01:13:48.759Z,17.33
2023-10-06T01:16:21.743Z,17.44
2023-10-06T01:18:48.938Z,17.66
2023-10-06T01:27:00.395Z,17.15
2023-10-06T01:29:34.541Z,16.70
2023-10-06T01:32:07.471Z,16.84
2023-10-06T01:34:35.988Z,16.42
2023-10-06T01:39:59.120Z,16.81
2023-10-06T01:42:31.700Z,16.48
2023-10-06T01:45:03.431Z,16.62
2023-10-06T01:47:36.171Z,16.79
2023-10-06T01:50:06.661Z,17.02
2023-10-06T01:52:44.409Z,16.66
2023-10-06T01:55:16.956Z,16.66
2023-10-06T02:00:34.439Z,16.77
2023-10-06T02:03:07.006Z,16.89
2023-10-06T02:05:35.473Z,17.06
2023-10-06T02:08:11.474Z,17.22
2023-10-06T02:10:39.147Z,17.12
2023-10-06T02:16:01.114Z,17.66
2023-10-06T02:18:31.676Z,17.34
2023-10-06T02:21:04.449Z,17.45
2023-10-06T02:23:37.323Z,17.10
2023-10-06T02:26:04.599Z,17.21
2023-10-06T02:28:32.840Z,17.14
2023-10-06T02:33:57.799Z,17.07
2023-10-06T02:36:24.995Z,17.58
2023-10-06T02:41:50.095Z,17.11
2023-10-06T02:44:18.090Z,17.40
2023-10-06T02:46:46.103Z,17.58
2023-10-06T02:49:14.849Z,17.40
2023-10-06T02:51:42.029Z,17.30
2023-10-06T02:57:00.243Z,17.24
2023-10-06T02:59:30.092Z,17.03
2023-10-06T03:01:59.242Z,16.46
2023-10-06T03:04:26.523Z,17.03
2023-10-06T03:06:53.533Z,17.17
2023-10-06T03:09:20.484Z,17.31
2023-10-06T03:11:53.174Z,16.75
2023-10-06T03:14:26.008Z,16.72
2023-10-06T03:16:53.763Z,16.70
2023-10-06T03:19:21.467Z,16.85
2023-10-06T03:24:46.094Z,17.03
2023-10-06T03:27:13.285Z,17.27
2023-10-06T03:29:46.236Z,16.97
2023-10-06T03:32:19.271Z,17.11
2023-10-06T03:34:52.274Z,17.19
2023-10-06T03:40:13.470Z,17.03
2023-10-06T03:42:40.223Z,16.92
2023-10-06T03:45:09.142Z,16.67
2023-10-06T03:50:30.799Z,16.75
2023-10-06T03:53:01.365Z,16.69
2023-10-06T03:55:34.198Z,16.95
2023-10-06T03:58:07.306Z,17.12
2023-10-06T04:00:40.282Z,16.96
2023-10-06T04:03:12.848Z,16.89
2023-10-06T04:08:30.212Z,16.47
2023-10-06T04:10:57.421Z,16.49
2023-10-06T04:13:24.648Z,16.57
2023-10-06T04:15:51.971Z,16.73
2023-10-06T04:18:19.285Z,16.73
2023-10-06T04:20:52.019Z,16.69
2023-10-06T04:23:24.832Z,16.94
2023-10-06T04:25:58.112Z,16.84
2023-10-06T04:28:25.647Z,16.50
2023-10-06T04:36:34.978Z,16.57
2023-10-06T04:39:05.868Z,16.30
2023-10-06T04:41:38.721Z,16.61
2023-10-06T04:47:20.923Z,16.50
2023-10-06T04:49:57.040Z,16.67
2023-10-06T04:52:42.586Z,16.56
2023-10-06T05:01:40.756Z,16.57
2023-10-06T05:07:06.573Z,16.24
2023-10-06T05:12:26.589Z,16.76
2023-10-06T05:14:53.811Z,16.41
2023-10-06T06:05:24.165Z,16.57
2023-10-06T06:07:51.397Z,16.21
2023-10-06T06:10:19.293Z,15.94
2023-10-06T06:12:48.484Z,15.76
2023-10-06T06:15:17.660Z,15.55
2023-10-06T06:17:44.733Z,15.57
2023-10-06T06:20:18.332Z,15.69
2023-10-06T06:22:45.707Z,15.45
2023-10-06T06:25:12.572Z,15.85
2023-10-06T06:27:39.868Z,15.84
2023-10-06T06:30:10.081Z,16.08
2023-10-06T06:32:37.276Z,16.15
2023-10-06T06:35:04.322Z,16.24
2023-10-06T06:37:31.385Z,16.41
2023-10-06T06:39:58.638Z,16.89
2023-10-06T06:45:43.209Z,17.10
2023-10-06T06:48:12.824Z,17.31
2023-10-06T06:50:39.773Z,17.51
2023-10-06T06:53:06.577Z,17.24
2023-10-06T06:55:34.381Z,17.30
2023-10-06T06:58:01.325Z,17.50
2023-10-06T07:00:28.382Z,17.70
2023-10-06T07:02:58.466Z,18.04
2023-10-06T07:05:32.112Z,18.31
2023-10-06T07:08:07.448Z,18.83
2023-10-06T07:10:43.494Z,19.09
2023-10-06T07:13:12.458Z,19.18
2023-10-06T07:15:42.228Z,18.93
2023-10-06T07:18:11.051Z,18.41
2023-10-06T07:20:37.957Z,18.34
2023-10-06T07:23:07.148Z,18.73
2023-10-06T07:25:34.342Z,18.48
2023-10-06T07:28:02.177Z,18.43
2023-10-06T07:30:31.390Z,18.57
2023-10-06T07:32:58.482Z,19.31
2023-10-06T07:35:29.007Z,19.26
2023-10-06T07:37:55.831Z,19.71
2023-10-06T07:40:22.983Z,19.80
2023-10-06T07:42:50.263Z,20.14
2023-10-06T07:45:18.050Z,19.96
2023-10-06T07:47:45.320Z,19.94
2023-10-06T07:50:12.988Z,20.21
2023-10-06T07:52:40.128Z,20.25
2023-10-06T07:55:09.290Z,20.38
2023-10-06T07:57:36.333Z,20.27
2023-10-06T08:00:03.289Z,20.21
2023-10-06T08:05:47.164Z,19.73
2023-10-06T08:08:14.280Z,20.07
2023-10-06T08:10:41.128Z,19.60
2023-10-06T08:13:11.202Z,20.03
2023-10-06T08:18:43.217Z,19.74
2023-10-06T08:21:11.441Z,20.05
2023-10-06T08:23:39.711Z,19.82
2023-10-06T08:26:08.499Z,19.50
2023-10-06T08:28:35.707Z,19.81
2023-10-06T08:31:03.365Z,20.12
2023-10-06T08:33:33.008Z,20.03
2023-10-06T08:36:01.198Z,20.23
2023-10-06T08:38:28.986Z,20.58
2023-10-06T08:40:55.972Z,20.73
2023-10-06T08:43:23.676Z,20.15
2023-10-06T08:45:52.948Z,20.11
2023-10-06T08:48:21.253Z,20.48
2023-10-06T08:50:48.075Z,19.91
2023-10-06T08:53:16.154Z,20.42
2023-10-06T09:01:50.640Z,20.16
2023-10-06T09:04:20.846Z,18.82
2023-10-06T09:32:00.763Z,20.49
2023-10-06T09:32:21.107Z,20.90
2023-10-06T09:38:09.284Z,20.89
2023-10-06T09:40:34.470Z,21.27
2023-10-06T09:43:01.615Z,21.51
2023-10-06T09:45:29.253Z,21.22
2023-10-06T09:50:40.760Z,20.48
2023-10-06T09:53:10.200Z,20.64
2023-10-06T09:55:38.233Z,20.88
2023-10-06T09:58:05.338Z,21.09
2023-10-06T10:00:32.510Z,21.10
2023-10-06T10:06:15.137Z,21.33
2023-10-06T10:08:44.450Z,21.49
2023-10-06T10:11:11.588Z,21.43
2023-10-06T10:13:42.284Z,21.26
2023-10-06T10:16:22.877Z,21.75
2023-10-06T10:19:11.740Z,21.82
2023-10-06T10:21:39.182Z,21.79
2023-10-06T10:24:40.623Z,21.56
2023-10-06T10:26:56.941Z,21.59
2023-10-06T10:29:23.915Z,21.55
2023-10-06T10:32:00.802Z,21.76
2023-10-06T10:34:28.959Z,21.09
2023-10-06T10:36:56.863Z,21.69
2023-10-06T10:39:24.126Z,21.86
2023-10-06T10:41:51.637Z,21.75
2023-10-06T10:44:25.961Z,21.69
2023-10-06T10:47:12.853Z,22.11
2023-10-06T10:49:39.857Z,22.40
2023-10-06T10:52:07.526Z,22.03
2023-10-06T10:54:34.531Z,22.25
2023-10-06T10:57:01.368Z,21.96
2023-10-06T10:59:28.231Z,21.68
2023-10-06T11:01:56.091Z,21.74
2023-10-06T11:04:23.060Z,22.05
2023-10-06T11:06:49.950Z,22.41
2023-10-06T11:09:17.185Z,22.70
2023-10-06T11:11:44.835Z,22.61
2023-10-06T11:14:11.871Z,22.70
2023-10-06T11:16:39.358Z,22.91
2023-10-06T11:19:06.424Z,22.73
2023-10-06T11:21:34.285Z,22.28
2023-10-06T11:24:01.224Z,22.51
2023-10-06T11:26:28.222Z,22.50
2023-10-06T11:28:56.255Z,22.24
2023-10-06T11:31:23.997Z,22.73
2023-10-06T11:39:42.007Z,22.40
2023-10-06T11:45:18.258Z,23.28
2023-10-06T11:47:45.331Z,23.25
2023-10-06T11:50:13.221Z,23.23
2023-10-06T11:52:55.974Z,22.53
2023-10-06T11:58:34.312Z,23.14
2023-10-06T12:01:37.310Z,23.18
2023-10-06T12:06:53.961Z,23.43
2023-10-06T12:16:48.613Z,23.16
2023-10-06T12:18:47.650Z,23.48
2023-10-06T12:21:23.793Z,23.33
2023-10-06T12:30:17.709Z,23.04
2023-10-06T12:35:44.751Z,23.91
2023-10-06T12:50:34.218Z,23.67
2023-10-06T12:56:13.604Z,23.79
2023-10-06T12:59:03.178Z,24.07
2023-10-06T13:17:34.179Z,24.19
2023-10-06T13:33:34.717Z,24.17
2023-10-06T14:01:24.139Z,24.41
2023-10-06T14:03:51.275Z,24.61
2023-10-06T14:06:18.289Z,24.44
2023-10-06T14:08:46.722Z,24.22
2023-10-06T14:11:18.017Z,24.69
2023-10-06T14:13:45.098Z,24.57
2023-10-06T14:16:12.989Z,24.33
2023-10-06T14:31:49.491Z,24.44
2023-10-06T14:34:13.100Z,24.35
2023-10-06T14:36:39.894Z,24.13
2023-10-06T14:39:07.048Z,24.40
2023-10-06T14:41:33.798Z,24.26
2023-10-06T14:44:00.654Z,24.32
2023-10-06T14:46:27.650Z,24.79
2023-10-06T14:52:00.185Z,24.37
2023-10-06T14:54:27.262Z,24.60
2023-10-06T14:56:55.706Z,24.53
2023-10-06T14:59:22.940Z,24.83
2023-10-06T15:01:50.302Z,24.67
2023-10-06T15:04:17.319Z,24.56
2023-10-06T15:06:47.867Z,24.55
2023-10-06T15:09:14.561Z,24.67
2023-10-06T15:11:41.753Z,24.97
2023-10-06T15:14:14.028Z,24.89
2023-10-06T15:16:41.768Z,24.48
2023-10-06T15:19:08.703Z,24.67
2023-10-06T15:21:35.903Z,24.63
2023-10-06T15:24:05.991Z,24.35
2023-10-06T15:26:33.095Z,24.09
2023-10-06T15:29:02.198Z,24.21
2023-10-06T15:31:33.218Z,24.11
2023-10-06T15:34:00.281Z,24.43
2023-10-06T15:36:27.186Z,24.23
2023-10-06T15:38:53.936Z,24.46
2023-10-06T15:41:20.843Z,24.57
2023-10-06T15:43:48.464Z,24.73
2023-10-06T15:46:15.632Z,24.32
2023-10-06T15:48:44.903Z,24.40
2023-10-06T15:51:17.376Z,24.55
2023-10-06T15:53:44.548Z,24.08
2023-10-06T15:56:11.563Z,24.02
2023-10-06T15:58:38.441Z,23.78
2023-10-06T16:01:05.431Z,24.18
2023-10-06T16:03:32.463Z,24.31
2023-10-06T16:05:59.703Z,24.04
2023-10-06T16:08:26.733Z,24.31
2023-10-06T16:10:53.477Z,24.34
2023-10-06T16:13:20.337Z,24.33
2023-10-06T16:16:04.171Z,24.32
2023-10-06T16:18:36.323Z,24.30
2023-10-06T16:21:03.312Z,24.18
2023-10-06T16:23:32.529Z,24.04
2023-10-06T16:25:59.900Z,24.11
2023-10-06T16:28:27.424Z,23.99
2023-10-06T16:30:54.006Z,23.92
2023-10-06T16:33:21.123Z,23.82
2023-10-06T16:35:48.344Z,23.39
2023-10-06T16:38:18.502Z,23.46
2023-10-06T16:40:45.723Z,23.31
2023-10-06T16:43:12.393Z,23.12
2023-10-06T16:45:40.893Z,23.31
2023-10-06T16:51:18.698Z,23.33
2023-10-06T16:53:45.444Z,23.44
2023-10-06T16:56:13.147Z,23.47
2023-10-06T16:58:42.166Z,23.44
2023-10-06T17:01:08.932Z,23.41
2023-10-06T17:03:36.142Z,23.34
2023-10-06T17:06:02.926Z,23.29
2023-10-06T17:08:29.593Z,23.17
2023-10-06T17:10:56.399Z,23.16
2023-10-06T17:13:23.389Z,23.09
2023-10-06T17:15:50.279Z,23.06
2023-10-06T17:18:18.553Z,22.99
2023-10-06T17:20:45.401Z,22.85
2023-10-06T17:23:13.286Z,22.77
2023-10-06T17:25:40.035Z,22.55
2023-10-06T17:28:10.410Z,22.62
2023-10-06T17:33:30.814Z,22.67
2023-10-06T17:35:57.950Z,22.64
2023-10-06T17:38:25.004Z,21.88
2023-10-06T17:40:56.100Z,21.95
2023-10-06T17:43:25.864Z,21.67
2023-10-06T17:45:55.659Z,22.08
2023-10-06T17:48:25.718Z,22.20
2023-10-06T17:50:52.624Z,22.09
2023-10-06T18:05:51.667Z,22.05
2023-10-06T18:08:21.876Z,22.09
2023-10-06T18:10:48.674Z,22.15
2023-10-06T18:13:15.617Z,22.01
2023-10-06T18:15:42.449Z,22.06
2023-10-06T18:18:09.428Z,22.03
2023-10-06T18:20:36.981Z,22.00
2023-10-06T18:23:05.515Z,21.78
2023-10-06T18:25:32.464Z,21.85
2023-10-06T18:28:00.029Z,21.95
2023-10-06T18:30:26.702Z,21.36
2023-10-06T18:32:53.602Z,21.52
2023-10-06T18:35:20.370Z,21.44
2023-10-06T18:37:47.403Z,21.37
2023-10-06T18:40:14.154Z,21.29
2023-10-06T18:42:44.193Z,21.01
2023-10-06T18:45:11.122Z,20.30
2023-10-06T18:47:37.833Z,20.27
2023-10-06T18:50:04.785Z,20.57
2023-10-06T18:52:31.347Z,20.39
2023-10-06T18:54:57.858Z,19.54
2023-10-06T18:57:24.524Z,19.82
2023-10-06T18:59:51.402Z,20.16
2023-10-06T19:02:18.058Z,20.51
2023-10-06T19:04:45.939Z,20.54
2023-10-06T19:07:14.681Z,20.38
2023-10-06T19:09:41.241Z,20.58
2023-10-06T20:40:47.839Z,19.05
2023-10-06T20:43:21.726Z,19.03
2023-10-06T20:45:48.858Z,18.80
2023-10-06T20:48:16.319Z,18.80
2023-10-06T20:50:43.802Z,18.62
2023-10-06T20:53:12.002Z,18.90
2023-10-06T20:55:39.015Z,19.08
2023-10-06T20:58:08.832Z,19.01
2023-10-06T21:00:39.226Z,18.90
2023-10-06T21:03:09.066Z,18.94
2023-10-06T21:05:36.824Z,18.41
2023-10-06T21:08:21.785Z,18.17
2023-10-06T21:10:51.909Z,18.17
2023-10-06T21:13:18.967Z,18.44
2023-10-06T21:15:49.035Z,18.72
2023-10-06T21:18:16.757Z,18.73
2023-10-06T21:23:40.147Z,18.96
2023-10-06T21:26:10.168Z,19.06
2023-10-06T21:28:37.970Z,18.74
2023-10-06T21:31:05.732Z,19.05
2023-10-06T21:33:33.565Z,19.31
2023-10-06T21:36:04.200Z,19.41
2023-10-06T21:38:32.016Z,18.59
2023-10-06T21:40:59.893Z,18.59
2023-10-06T21:43:30.282Z,18.56
2023-10-06T21:46:05.514Z,18.73
2023-10-06T21:48:34.409Z,18.40
2023-10-06T21:51:01.189Z,18.37
2023-10-06T21:53:31.781Z,18.11
2023-10-06T21:56:02.842Z,18.28
2023-10-06T22:01:27.645Z,18.13
2023-10-06T22:03:57.308Z,18.04
2023-10-06T22:06:29.805Z,18.11
2023-10-06T22:08:57.708Z,17.91
2023-10-06T22:11:25.227Z,17.99
2023-10-06T22:13:52.381Z,17.84
2023-10-06T22:16:23.283Z,17.63
2023-10-06T22:18:50.275Z,17.98
2023-10-06T22:21:18.033Z,18.12
2023-10-06T22:23:47.229Z,17.91
2023-10-06T22:26:15.104Z,17.85
2023-10-06T22:28:43.241Z,17.85
2023-10-06T22:31:11.164Z,17.75
2023-10-06T22:33:37.917Z,17.79
2023-10-06T22:36:06.094Z,17.77
2023-10-06T22:38:32.714Z,17.83
2023-10-06T22:40:59.712Z,17.67
2023-10-06T22:49:41.035Z,17.84
2023-10-06T22:52:07.851Z,18.05
2023-10-06T22:54:36.436Z,18.03
2023-10-06T22:57:03.271Z,17.62
2023-10-06T22:59:31.057Z,17.81
2023-10-06T23:01:58.614Z,17.32
2023-10-06T23:04:26.185Z,17.26
2023-10-06T23:06:57.827Z,17.81
2023-10-06T23:09:24.597Z,17.61
2023-10-06T23:11:52.361Z,17.66
2023-10-06T23:14:23.860Z,17.90
2023-10-06T23:16:51.855Z,17.87
2023-10-06T23:19:19.563Z,17.80
2023-10-06T23:21:46.897Z,17.54
2023-10-06T23:24:14.633Z,17.50
2023-10-06T23:26:41.395Z,17.20
2023-10-06T23:29:08.311Z,17.18
2023-10-06T23:31:35.693Z,17.29
2023-10-06T23:34:03.759Z,17.62
2023-10-06T23:36:30.937Z,17.53
2023-10-06T23:39:00.892Z,17.83
2023-10-06T23:44:44.338Z,17.03
2023-10-06T23:47:11.158Z,17.11
2023-10-06T23:49:39.170Z,17.30
2023-10-06T23:52:08.168Z,17.15
2023-10-06T23:54:35.064Z,17.41
2023-10-06T23:57:03.465Z,17.39
2023-10-06T23:59:31.148Z,17.65
